createdAt,value
2022-07-26T00:01:02.234Z,26.69
2022-07-26T00:03:30.151Z,26.67
2022-07-26T00:05:57.885Z,26.65
2022-07-26T00:08:27.112Z,26.58
2022-07-26T00:10:54.822Z,26.55
2022-07-26T00:13:22.856Z,26.51
2022-07-26T00:15:51.146Z,26.46
2022-07-26T00:18:19.202Z,26.43
2022-07-26T00:20:47.051Z,26.42
2022-07-26T00:23:14.922Z,26.39
2022-07-26T00:25:44.137Z,26.35
2022-07-26T00:28:12.043Z,26.31
2022-07-26T00:30:40.169Z,26.32
2022-07-26T00:33:08.431Z,26.29
2022-07-26T00:35:36.208Z,26.26
2022-07-26T00:38:03.984Z,26.24
2022-07-26T00:40:32.088Z,26.18
2022-07-26T00:43:01.229Z,26.18
2022-07-26T00:45:28.962Z,26.18
2022-07-26T00:47:56.930Z,26.13
2022-07-26T00:50:24.643Z,26.12
2022-07-26T00:52:52.306Z,26.08
2022-07-26T00:55:21.043Z,26.02
2022-07-26T00:57:48.767Z,25.96
2022-07-26T01:00:20.757Z,25.90
2022-07-26T01:02:48.879Z,25.84
2022-07-26T01:05:17.299Z,25.85
2022-07-26T01:07:45.212Z,25.84
2022-07-26T01:10:13.193Z,25.81
2022-07-26T01:12:42.075Z,25.72
2022-07-26T01:15:11.681Z,25.71
2022-07-26T01:17:41.654Z,25.70
2022-07-26T01:20:11.943Z,25.65
2022-07-26T01:22:41.431Z,25.64
2022-07-26T01:25:11.445Z,25.65
2022-07-26T01:27:40.192Z,25.64
2022-07-26T01:30:10.581Z,25.60
2022-07-26T01:32:38.719Z,25.58
2022-07-26T01:35:08.987Z,25.56
2022-07-26T01:37:36.692Z,25.58
2022-07-26T01:40:07.143Z,25.58
2022-07-26T01:42:35.112Z,25.55
2022-07-26T01:45:02.870Z,25.45
2022-07-26T01:47:30.608Z,25.39
2022-07-26T01:49:58.388Z,25.35
2022-07-26T01:52:27.639Z,25.29
2022-07-26T01:54:55.310Z,25.24
2022-07-26T01:57:24.508Z,25.20
2022-07-26T01:59:52.266Z,25.18
2022-07-26T02:02:20.102Z,25.14
2022-07-26T02:05:00.025Z,25.08
2022-07-26T02:07:28.619Z,25.05
2022-07-26T02:09:57.478Z,25.05
2022-07-26T02:12:27.196Z,25.02
2022-07-26T02:14:54.938Z,24.95
2022-07-26T02:17:22.802Z,24.93
2022-07-26T02:19:50.561Z,24.90
2022-07-26T02:22:18.965Z,24.85
2022-07-26T02:24:47.545Z,24.77
2022-07-26T02:27:15.660Z,24.72
2022-07-26T02:29:45.304Z,24.74
2022-07-26T02:32:13.004Z,24.79
2022-07-26T02:34:40.757Z,24.80
2022-07-26T02:37:08.532Z,24.80
2022-07-26T02:39:36.264Z,24.83
2022-07-26T02:42:04.567Z,24.86
2022-07-26T02:44:32.345Z,24.81
2022-07-26T02:47:01.398Z,24.77
2022-07-26T02:49:29.093Z,24.76
2022-07-26T02:51:56.712Z,24.73
2022-07-26T02:54:24.407Z,24.71
2022-07-26T02:56:52.153Z,24.68
2022-07-26T02:59:19.921Z,24.69
2022-07-26T03:01:47.683Z,24.63
2022-07-26T03:04:16.946Z,24.61
2022-07-26T03:06:44.699Z,24.57
2022-07-26T03:09:12.853Z,24.59
2022-07-26T03:11:40.527Z,24.59
2022-07-26T03:14:08.561Z,24.60
2022-07-26T03:16:36.600Z,24.58
2022-07-26T03:19:04.490Z,24.56
2022-07-26T03:21:33.558Z,24.53
2022-07-26T03:24:01.330Z,24.39
2022-07-26T03:26:29.317Z,24.24
2022-07-26T03:28:57.134Z,24.04
2022-07-26T03:31:25.603Z,23.88
2022-07-26T03:33:53.421Z,23.91
2022-07-26T03:36:21.188Z,24.01
2022-07-26T03:38:50.302Z,24.01
2022-07-26T03:41:18.023Z,23.96
2022-07-26T03:43:45.663Z,23.86
2022-07-26T03:46:13.425Z,23.79
2022-07-26T03:48:41.292Z,24.06
2022-07-26T03:51:09.032Z,23.90
2022-07-26T03:53:36.815Z,23.86
2022-07-26T03:56:23.495Z,23.88
2022-07-26T03:58:51.182Z,23.91
2022-07-26T04:01:19.055Z,23.91
2022-07-26T04:03:47.896Z,23.92
2022-07-26T04:06:16.299Z,23.97
2022-07-26T04:08:44.040Z,23.96
2022-07-26T04:13:41.048Z,23.90
2022-07-26T04:16:09.402Z,23.88
2022-07-26T04:18:37.200Z,23.82
2022-07-26T04:21:05.332Z,23.80
2022-07-26T04:23:33.020Z,23.85
2022-07-26T04:26:00.821Z,23.89
2022-07-26T04:28:29.873Z,23.91
2022-07-26T04:30:58.129Z,23.92
2022-07-26T04:33:26.074Z,23.85
2022-07-26T04:35:53.831Z,23.80
2022-07-26T04:38:21.534Z,23.81
2022-07-26T04:40:50.932Z,23.82
2022-07-26T04:43:18.747Z,23.84
2022-07-26T04:45:48.020Z,23.84
2022-07-26T04:48:16.173Z,23.84
2022-07-26T04:50:44.294Z,23.84
2022-07-26T04:53:12.055Z,23.83
2022-07-26T04:55:40.197Z,23.84
2022-07-26T04:58:08.195Z,23.85
2022-07-26T05:00:51.303Z,23.84
2022-07-26T05:03:25.998Z,23.79
2022-07-26T05:05:53.972Z,23.76
2022-07-26T05:08:21.629Z,23.65
2022-07-26T05:10:54.906Z,23.62
2022-07-26T05:13:29.778Z,23.65
2022-07-26T05:15:58.946Z,23.70
2022-07-26T05:18:31.592Z,23.71
2022-07-26T05:21:10.405Z,23.66
2022-07-26T05:23:38.151Z,23.67
2022-07-26T05:26:06.142Z,23.72
2022-07-26T05:28:33.851Z,23.75
2022-07-26T05:31:01.682Z,23.72
2022-07-26T05:33:30.978Z,23.69
2022-07-26T05:35:58.936Z,23.72
2022-07-26T05:38:27.440Z,23.77
2022-07-26T05:40:55.089Z,23.82
2022-07-26T05:43:22.775Z,23.88
2022-07-26T05:45:50.570Z,23.86
2022-07-26T05:48:18.387Z,23.90
2022-07-26T05:53:17.699Z,23.96
2022-07-26T05:55:45.354Z,23.99
2022-07-26T05:58:13.258Z,23.88
2022-07-26T06:00:43.174Z,23.94
2022-07-26T06:03:32.707Z,24.01
2022-07-26T06:06:04.224Z,24.01
2022-07-26T06:08:32.072Z,24.10
2022-07-26T06:11:01.998Z,24.10
2022-07-26T06:13:29.734Z,24.08
2022-07-26T06:15:57.420Z,24.02
2022-07-26T06:18:25.323Z,24.01
2022-07-26T06:20:53.070Z,24.04
2022-07-26T06:23:33.762Z,24.09
2022-07-26T06:26:03.063Z,24.08
2022-07-26T06:28:30.823Z,24.05
2022-07-26T06:30:58.554Z,24.03
2022-07-26T06:33:26.328Z,24.06
2022-07-26T06:35:54.062Z,24.10
2022-07-26T06:38:23.167Z,24.08
2022-07-26T06:40:51.137Z,24.17
2022-07-26T06:43:18.844Z,24.11
2022-07-26T06:45:46.583Z,24.08
2022-07-26T06:48:14.387Z,24.11
2022-07-26T06:50:42.489Z,24.15
2022-07-26T06:53:10.303Z,24.18
2022-07-26T06:55:39.514Z,24.24
2022-07-26T06:58:07.229Z,24.31
2022-07-26T07:00:35.131Z,24.37
2022-07-26T07:03:02.860Z,24.40
2022-07-26T07:05:31.182Z,24.43
2022-07-26T07:07:59.170Z,24.53
2022-07-26T07:10:26.981Z,24.54
2022-07-26T07:12:56.089Z,24.54
2022-07-26T07:15:23.955Z,24.56
2022-07-26T07:17:52.264Z,24.63
2022-07-26T07:20:20.513Z,24.61
2022-07-26T07:22:48.308Z,24.61
2022-07-26T07:25:16.265Z,24.64
2022-07-26T07:27:44.035Z,24.72
2022-07-26T07:30:14.253Z,24.75
2022-07-26T07:32:42.330Z,24.80
2022-07-26T07:35:12.969Z,24.80
2022-07-26T07:37:53.884Z,24.87
2022-07-26T07:40:22.690Z,24.88
2022-07-26T07:42:50.509Z,24.93
2022-07-26T07:45:19.720Z,24.93
2022-07-26T07:47:47.446Z,24.97
2022-07-26T07:50:15.255Z,25.01
2022-07-26T07:52:45.931Z,25.03
2022-07-26T07:55:36.423Z,25.00
2022-07-26T07:58:01.386Z,25.04
2022-07-26T08:00:30.582Z,25.02
2022-07-26T08:02:58.278Z,25.10
2022-07-26T08:05:25.948Z,25.17
2022-07-26T08:07:54.085Z,25.28
2022-07-26T08:10:22.115Z,25.32
2022-07-26T08:12:51.333Z,25.40
2022-07-26T08:15:21.212Z,25.50
2022-07-26T08:17:54.057Z,25.64
2022-07-26T08:20:23.755Z,25.71
2022-07-26T08:22:53.254Z,25.80
2022-07-26T08:25:21.197Z,25.85
2022-07-26T08:28:03.159Z,25.94
2022-07-26T08:30:32.035Z,26.02
2022-07-26T08:33:01.984Z,26.01
2022-07-26T08:35:30.507Z,26.09
2022-07-26T08:37:58.442Z,26.08
2022-07-26T08:40:26.215Z,26.11
2022-07-26T08:42:55.789Z,26.16
2022-07-26T08:45:24.284Z,26.25
2022-07-26T08:48:15.960Z,26.36
2022-07-26T08:50:42.424Z,26.46
2022-07-26T08:53:12.973Z,26.41
2022-07-26T08:58:28.916Z,26.27
2022-07-26T09:01:08.177Z,26.26
2022-07-26T09:03:37.858Z,26.07
2022-07-26T09:06:16.715Z,26.10
2022-07-26T09:08:45.519Z,26.15
2022-07-26T09:11:28.627Z,26.18
2022-07-26T09:13:58.304Z,26.29
2022-07-26T09:16:26.673Z,26.30
2022-07-26T09:18:54.735Z,26.38
2022-07-26T09:21:31.730Z,26.31
2022-07-26T09:24:00.858Z,26.27
2022-07-26T09:26:29.176Z,26.23
2022-07-26T09:29:06.519Z,26.33
2022-07-26T09:31:35.052Z,26.49
2022-07-26T09:34:03.404Z,26.67
2022-07-26T09:36:33.830Z,26.79
2022-07-26T09:39:03.776Z,26.92
2022-07-26T09:41:33.103Z,26.90
2022-07-26T09:44:01.962Z,26.74
2022-07-26T09:46:30.616Z,26.51
2022-07-26T09:49:10.422Z,26.45
2022-07-26T09:51:43.317Z,26.59
2022-07-26T09:54:13.490Z,26.75
2022-07-26T09:56:45.333Z,26.80
2022-07-26T09:59:14.946Z,26.91
2022-07-26T10:01:42.923Z,27.12
2022-07-26T10:04:11.729Z,27.15
2022-07-26T10:06:41.884Z,27.06
2022-07-26T10:09:09.963Z,26.89
2022-07-26T10:11:43.327Z,26.79
2022-07-26T10:14:38.507Z,26.74
2022-07-26T10:17:45.712Z,26.73
2022-07-26T10:20:46.594Z,26.64
2022-07-26T10:23:41.255Z,26.61
2022-07-26T10:26:11.791Z,26.58
2022-07-26T10:28:42.316Z,26.71
2022-07-26T10:31:31.244Z,27.03
2022-07-26T10:34:01.567Z,27.15
2022-07-26T10:36:33.422Z,27.12
2022-07-26T10:39:09.932Z,27.04
2022-07-26T10:41:43.100Z,27.02
2022-07-26T10:44:26.424Z,27.14
2022-07-26T10:47:19.385Z,27.26
2022-07-26T10:49:57.986Z,27.22
2022-07-26T10:52:28.069Z,27.06
2022-07-26T10:55:19.106Z,27.06
2022-07-26T10:57:49.480Z,27.29
2022-07-26T11:00:22.760Z,27.40
2022-07-26T11:02:55.465Z,27.42
2022-07-26T11:05:28.761Z,27.48
2022-07-26T11:07:59.795Z,27.54
2022-07-26T11:10:31.672Z,27.46
2022-07-26T11:13:07.826Z,27.41
2022-07-26T11:15:37.155Z,27.24
2022-07-26T11:18:27.662Z,27.07
2022-07-26T11:20:57.252Z,26.94
2022-07-26T11:23:33.674Z,26.89
2022-07-26T11:26:05.564Z,26.90
2022-07-26T11:28:55.318Z,26.92
2022-07-26T11:31:51.593Z,26.90
2022-07-26T11:34:18.857Z,26.83
2022-07-26T11:36:47.361Z,26.80
2022-07-26T11:39:16.307Z,26.81
2022-07-26T11:41:45.368Z,26.82
2022-07-26T11:44:17.366Z,26.81
2022-07-26T11:46:47.682Z,26.76
2022-07-26T11:49:17.586Z,26.80
2022-07-26T11:51:54.043Z,27.01
2022-07-26T11:54:21.943Z,27.24
2022-07-26T11:56:56.644Z,27.45
2022-07-26T11:59:26.455Z,27.53
2022-07-26T12:01:54.830Z,27.48
2022-07-26T12:04:24.933Z,27.42
2022-07-26T12:06:54.181Z,27.31
2022-07-26T12:09:33.748Z,27.24
2022-07-26T12:12:04.099Z,27.17
2022-07-26T12:14:33.345Z,27.13
2022-07-26T12:17:11.679Z,27.01
2022-07-26T12:19:39.416Z,26.92
2022-07-26T12:22:13.120Z,26.95
2022-07-26T12:24:47.055Z,27.06
2022-07-26T12:27:19.577Z,27.11
2022-07-26T12:29:49.709Z,27.12
2022-07-26T12:32:19.641Z,27.03
2022-07-26T12:34:59.235Z,27.06
2022-07-26T12:37:39.575Z,27.15
2022-07-26T12:40:10.458Z,27.16
2022-07-26T12:42:42.249Z,27.16
2022-07-26T12:45:12.726Z,27.12
2022-07-26T12:47:42.120Z,27.16
2022-07-26T12:50:12.093Z,27.19
2022-07-26T12:52:40.224Z,27.24
2022-07-26T12:55:13.899Z,27.28
2022-07-26T12:57:46.069Z,27.35
2022-07-26T13:00:17.460Z,27.45
2022-07-26T13:02:45.912Z,27.48
2022-07-26T13:05:14.559Z,27.60
2022-07-26T13:07:42.782Z,27.66
2022-07-26T13:13:01.632Z,27.84
2022-07-26T13:15:35.961Z,27.84
2022-07-26T13:18:07.101Z,27.90
2022-07-26T13:20:35.216Z,27.97
2022-07-26T13:23:03.045Z,28.02
2022-07-26T13:25:34.528Z,28.11
2022-07-26T13:28:08.153Z,28.20
2022-07-26T13:30:37.618Z,28.23
2022-07-26T13:33:05.564Z,28.19
2022-07-26T13:35:33.416Z,28.12
2022-07-26T13:38:01.145Z,28.11
2022-07-26T13:40:31.535Z,28.05
2022-07-26T13:42:59.766Z,27.97
2022-07-26T13:45:29.887Z,27.92
2022-07-26T13:47:58.852Z,27.98
2022-07-26T13:50:27.591Z,28.12
2022-07-26T13:52:57.099Z,28.25
2022-07-26T13:55:25.884Z,28.38
2022-07-26T13:57:56.295Z,28.50
2022-07-26T14:00:25.745Z,28.65
2022-07-26T14:02:55.397Z,28.68
2022-07-26T14:05:23.438Z,28.60
2022-07-26T14:07:51.172Z,28.50
2022-07-26T14:10:19.561Z,28.44
2022-07-26T14:12:48.151Z,28.38
2022-07-26T14:15:21.613Z,28.42
2022-07-26T14:17:50.351Z,28.44
2022-07-26T14:20:19.929Z,28.47
2022-07-26T14:22:48.049Z,28.46
2022-07-26T14:25:15.904Z,28.45
2022-07-26T14:27:43.697Z,28.43
2022-07-26T14:30:12.479Z,28.34
2022-07-26T14:32:40.210Z,28.31
2022-07-26T14:35:09.233Z,28.21
2022-07-26T14:37:41.794Z,28.15
2022-07-26T14:40:16.552Z,28.18
2022-07-26T14:42:45.358Z,28.16
2022-07-26T14:45:13.539Z,28.20
2022-07-26T14:47:41.396Z,28.19
2022-07-26T14:50:11.059Z,28.17
2022-07-26T14:52:41.891Z,28.16
2022-07-26T14:55:10.594Z,28.10
2022-07-26T14:57:39.584Z,27.97
2022-07-26T15:00:09.743Z,27.94
2022-07-26T15:02:39.791Z,27.91
2022-07-26T15:05:07.893Z,27.89
2022-07-26T15:07:35.638Z,27.94
2022-07-26T15:10:05.952Z,27.84
2022-07-26T15:12:34.050Z,27.79
2022-07-26T15:15:01.824Z,27.74
2022-07-26T15:17:29.548Z,27.74
2022-07-26T15:19:57.493Z,27.70
2022-07-26T15:22:25.388Z,27.73
2022-07-26T15:24:53.146Z,27.75
2022-07-26T15:27:22.429Z,27.74
2022-07-26T15:29:51.117Z,27.74
2022-07-26T15:32:20.909Z,27.80
2022-07-26T15:34:48.646Z,27.84
2022-07-26T15:37:16.443Z,27.88
2022-07-26T15:39:44.356Z,27.91
2022-07-26T15:42:12.139Z,27.88
2022-07-26T15:44:44.681Z,27.87
2022-07-26T15:47:15.504Z,27.90
2022-07-26T15:49:58.670Z,27.91
2022-07-26T15:52:26.458Z,27.88
2022-07-26T15:54:54.311Z,27.86
2022-07-26T15:57:22.080Z,27.88
2022-07-26T15:59:51.295Z,27.87
2022-07-26T16:02:19.383Z,27.87
2022-07-26T16:04:47.235Z,27.83
2022-07-26T16:07:15.178Z,27.84
2022-07-26T16:09:42.954Z,27.88
2022-07-26T16:12:11.088Z,27.82
2022-07-26T16:14:38.729Z,27.80
2022-07-26T16:17:07.905Z,27.78
2022-07-26T16:19:35.636Z,27.77
2022-07-26T16:22:03.775Z,27.79
2022-07-26T16:24:31.674Z,27.72
2022-07-26T16:26:59.402Z,27.75
2022-07-26T16:29:27.207Z,27.79
2022-07-26T16:31:56.118Z,27.79
2022-07-26T16:34:25.272Z,27.80
2022-07-26T16:36:53.053Z,27.77
2022-07-26T16:39:20.804Z,27.81
2022-07-26T16:41:48.495Z,27.75
2022-07-26T16:44:16.179Z,27.82
2022-07-26T16:46:44.345Z,27.82
2022-07-26T16:49:13.131Z,27.83
2022-07-26T16:51:42.609Z,27.94
2022-07-26T16:54:10.486Z,27.90
2022-07-26T16:56:38.459Z,27.90
2022-07-26T16:59:10.317Z,27.87
2022-07-26T17:01:38.460Z,27.82
2022-07-26T17:04:06.574Z,27.79
2022-07-26T17:06:34.338Z,27.77
2022-07-26T17:09:03.377Z,27.69
2022-07-26T17:11:31.097Z,27.60
2022-07-26T17:13:58.747Z,27.60
2022-07-26T17:16:26.793Z,27.59
2022-07-26T17:18:55.371Z,27.57
2022-07-26T17:21:23.656Z,27.55
2022-07-26T17:23:51.853Z,27.53
2022-07-26T17:26:21.274Z,27.49
2022-07-26T17:28:49.039Z,27.46
2022-07-26T17:31:16.981Z,27.43
2022-07-26T17:33:44.764Z,27.41
2022-07-26T17:36:26.865Z,27.43
2022-07-26T17:38:55.126Z,27.42
2022-07-26T17:41:32.401Z,27.43
2022-07-26T17:44:02.884Z,27.44
2022-07-26T17:46:32.485Z,27.42
2022-07-26T17:49:00.569Z,27.38
2022-07-26T17:51:28.487Z,27.38
2022-07-26T17:53:56.295Z,27.38
2022-07-26T17:56:25.660Z,27.38
2022-07-26T17:58:53.426Z,27.34
2022-07-26T18:01:21.368Z,27.29
2022-07-26T18:03:49.769Z,27.28
2022-07-26T18:06:18.544Z,27.23
2022-07-26T18:08:46.369Z,27.21
2022-07-26T18:11:14.015Z,27.18
2022-07-26T18:13:43.052Z,27.17
2022-07-26T18:16:10.820Z,27.13
2022-07-26T18:18:38.824Z,27.14
2022-07-26T18:21:06.550Z,27.12
2022-07-26T18:23:34.287Z,27.11
2022-07-26T18:26:04.478Z,27.08
2022-07-26T18:28:32.194Z,27.09
2022-07-26T18:31:01.225Z,27.05
2022-07-26T18:33:32.066Z,27.03
2022-07-26T18:36:00.996Z,27.01
2022-07-26T18:38:28.998Z,26.99
2022-07-26T18:40:56.764Z,26.95
2022-07-26T18:43:24.582Z,26.92
2022-07-26T18:45:52.318Z,26.90
2022-07-26T18:48:22.126Z,26.88
2022-07-26T18:50:52.564Z,26.83
2022-07-26T18:53:20.969Z,26.79
2022-07-26T18:55:49.175Z,26.76
2022-07-26T18:58:17.625Z,26.71
2022-07-26T19:00:49.396Z,26.69
2022-07-26T19:03:17.138Z,26.66
2022-07-26T19:05:46.446Z,26.62
2022-07-26T19:08:14.286Z,26.59
2022-07-26T19:10:42.104Z,26.56
2022-07-26T19:13:09.793Z,26.51
2022-07-26T19:15:37.591Z,26.48
2022-07-26T19:18:13.781Z,26.47
2022-07-26T19:20:41.517Z,26.44
2022-07-26T19:23:11.232Z,26.43
2022-07-26T19:25:39.552Z,26.40
2022-07-26T19:28:08.578Z,26.39
2022-07-26T19:30:37.620Z,26.38
2022-07-26T19:33:06.116Z,26.37
2022-07-26T19:35:33.819Z,26.35
2022-07-26T19:38:01.545Z,26.35
2022-07-26T19:40:30.787Z,26.35
2022-07-26T19:42:58.520Z,26.32
2022-07-26T19:45:26.246Z,26.34
2022-07-26T19:47:54.119Z,26.32
2022-07-26T19:50:22.256Z,26.27
2022-07-26T19:52:49.968Z,26.28
2022-07-26T19:55:17.818Z,26.28
2022-07-26T19:57:46.916Z,26.24
2022-07-26T20:00:15.771Z,26.20
2022-07-26T20:02:43.760Z,26.17
2022-07-26T20:05:13.155Z,26.11
2022-07-26T20:07:41.074Z,26.10
2022-07-26T20:10:09.886Z,26.08
2022-07-26T20:12:38.760Z,26.05
2022-07-26T20:15:10.121Z,26.03
2022-07-26T20:17:39.784Z,25.99
2022-07-26T20:20:08.935Z,25.98
2022-07-26T20:22:36.774Z,25.95
2022-07-26T20:25:04.973Z,25.93
2022-07-26T20:27:35.940Z,25.91
2022-07-26T20:30:05.462Z,25.89
2022-07-26T20:32:34.603Z,25.89
2022-07-26T20:35:02.480Z,25.85
2022-07-26T20:37:30.311Z,25.83
2022-07-26T20:39:58.008Z,25.80
2022-07-26T20:42:28.955Z,25.78
2022-07-26T20:44:57.304Z,25.77
2022-07-26T20:47:24.995Z,25.75
2022-07-26T20:49:54.036Z,25.76
2022-07-26T20:52:26.259Z,25.69
2022-07-26T20:54:53.997Z,25.70
2022-07-26T20:57:22.397Z,25.68
2022-07-26T20:59:50.079Z,25.64
2022-07-26T21:02:17.866Z,25.64
2022-07-26T21:04:46.130Z,25.62
2022-07-26T21:07:15.450Z,25.60
2022-07-26T21:09:43.269Z,25.57
2022-07-26T21:12:11.507Z,25.59
2022-07-26T21:14:39.304Z,25.57
2022-07-26T21:17:11.587Z,25.56
2022-07-26T21:19:40.771Z,25.55
2022-07-26T21:22:09.127Z,25.49
2022-07-26T21:24:38.602Z,25.49
2022-07-26T21:27:07.558Z,25.49
2022-07-26T21:29:39.600Z,25.42
2022-07-26T21:32:07.616Z,25.37
2022-07-26T21:34:35.429Z,25.37
2022-07-26T21:37:04.452Z,25.36
2022-07-26T21:39:32.203Z,25.35
2022-07-26T21:42:01.183Z,25.34
2022-07-26T21:44:29.146Z,25.34
2022-07-26T21:46:56.922Z,25.31
2022-07-26T21:49:24.879Z,25.30
2022-07-26T21:51:52.629Z,25.30
2022-07-26T21:54:20.377Z,25.25
2022-07-26T21:56:48.079Z,25.22
2022-07-26T21:59:17.227Z,25.22
2022-07-26T22:01:44.940Z,25.20
2022-07-26T22:04:12.596Z,25.18
2022-07-26T22:06:40.350Z,25.15
2022-07-26T22:09:08.377Z,25.13
2022-07-26T22:11:36.296Z,25.12
2022-07-26T22:14:04.543Z,25.07
2022-07-26T22:16:33.718Z,25.03
2022-07-26T22:19:02.318Z,24.99
2022-07-26T22:21:30.354Z,24.97
2022-07-26T22:23:58.019Z,24.96
2022-07-26T22:26:27.533Z,24.93
2022-07-26T22:28:55.197Z,24.91
2022-07-26T22:31:22.952Z,24.90
2022-07-26T22:33:52.020Z,24.88
2022-07-26T22:36:19.929Z,24.87
2022-07-26T22:38:47.735Z,24.86
2022-07-26T22:41:15.512Z,24.83
2022-07-26T22:43:44.083Z,24.80
2022-07-26T22:46:11.820Z,24.79
2022-07-26T22:48:42.178Z,24.81
2022-07-26T22:51:13.687Z,24.78
2022-07-26T22:53:41.346Z,24.77
2022-07-26T22:56:09.047Z,24.78
2022-07-26T22:58:36.845Z,24.75
2022-07-26T23:01:05.829Z,24.74
2022-07-26T23:03:33.638Z,24.73
2022-07-26T23:06:04.315Z,24.73
2022-07-26T23:08:47.552Z,24.70
2022-07-26T23:11:15.564Z,24.67
2022-07-26T23:13:43.276Z,24.69
2022-07-26T23:16:10.975Z,24.67
2022-07-26T23:18:38.803Z,24.64
2022-07-26T23:21:06.519Z,24.64
2022-07-26T23:23:34.345Z,24.61
2022-07-26T23:26:03.444Z,24.61
2022-07-26T23:28:36.692Z,24.59
2022-07-26T23:31:07.232Z,24.57
2022-07-26T23:33:50.589Z,24.56
2022-07-26T23:36:22.834Z,24.51
2022-07-26T23:38:50.537Z,24.51
2022-07-26T23:41:19.983Z,24.49
2022-07-26T23:43:47.985Z,24.48
2022-07-26T23:46:15.861Z,24.42
2022-07-26T23:48:43.658Z,24.41
2022-07-26T23:51:11.422Z,24.41
2022-07-26T23:53:39.140Z,24.38
2022-07-26T23:56:07.014Z,24.33
2022-07-26T23:58:36.070Z,24.26
